createdAt,value
2022-07-31T00:01:10.845Z,22.26
2022-07-31T00:03:37.591Z,22.27
2022-07-31T00:06:04.223Z,22.25
2022-07-31T00:08:31.716Z,22.21
2022-07-31T00:10:58.371Z,22.18
2022-07-31T00:13:57.952Z,22.14
2022-07-31T00:16:11.601Z,22.09
2022-07-31T00:18:38.186Z,22.06
2022-07-31T00:21:04.786Z,22.04
2022-07-31T00:23:31.378Z,22.03
2022-07-31T00:25:58.888Z,22.00
2022-07-31T00:28:25.502Z,21.97
2022-07-31T00:30:52.169Z,21.93
2022-07-31T00:33:19.053Z,21.91
2022-07-31T00:35:45.568Z,21.87
2022-07-31T00:38:27.949Z,21.82
2022-07-31T00:40:54.833Z,21.77
2022-07-31T00:43:21.587Z,21.73
2022-07-31T00:45:49.402Z,21.69
2022-07-31T00:48:26.228Z,21.67
2022-07-31T00:50:54.660Z,21.64
2022-07-31T00:53:21.257Z,21.63
2022-07-31T00:55:51.836Z,21.63
2022-07-31T00:58:20.152Z,21.60
2022-07-31T01:00:47.552Z,21.56
2022-07-31T01:03:14.692Z,21.51
2022-07-31T01:05:41.882Z,21.47
2022-07-31T01:08:08.661Z,21.43
2022-07-31T01:10:35.210Z,21.38
2022-07-31T01:13:08.398Z,21.36
2022-07-31T01:15:37.980Z,21.33
2022-07-31T01:18:06.226Z,21.31
2022-07-31T01:20:35.497Z,21.30
2022-07-31T01:23:13.779Z,21.26
2022-07-31T01:25:58.954Z,21.21
2022-07-31T01:28:53.196Z,21.18
2022-07-31T01:31:33.565Z,21.16
2022-07-31T01:34:08.288Z,21.14
2022-07-31T01:36:39.609Z,21.10
2022-07-31T01:39:06.269Z,21.08
2022-07-31T01:41:38.915Z,21.07
2022-07-31T01:44:07.719Z,21.06
2022-07-31T01:46:43.843Z,21.03
2022-07-31T01:49:13.041Z,20.98
2022-07-31T01:51:41.473Z,20.95
2022-07-31T01:54:09.870Z,20.89
2022-07-31T01:56:37.767Z,20.84
2022-07-31T01:59:05.862Z,20.80
2022-07-31T02:01:48.735Z,20.77
2022-07-31T02:04:19.648Z,20.75
2022-07-31T02:06:49.005Z,20.73
2022-07-31T02:09:18.189Z,20.71
2022-07-31T02:11:53.413Z,20.71
2022-07-31T02:14:22.230Z,20.70
2022-07-31T02:16:50.159Z,20.67
2022-07-31T02:19:17.420Z,20.65
2022-07-31T02:21:44.077Z,20.60
2022-07-31T02:24:10.726Z,20.55
2022-07-31T02:26:39.188Z,20.51
2022-07-31T02:29:08.601Z,20.45
2022-07-31T02:32:03.126Z,20.38
2022-07-31T02:34:31.702Z,20.34
2022-07-31T02:37:00.480Z,20.34
2022-07-31T02:39:30.491Z,20.34
2022-07-31T02:42:01.147Z,20.36
2022-07-31T02:44:31.775Z,20.39
2022-07-31T02:47:02.410Z,20.41
2022-07-31T02:49:30.403Z,20.39
2022-07-31T02:51:57.561Z,20.37
2022-07-31T02:54:25.952Z,20.36
2022-07-31T02:56:53.660Z,20.35
2022-07-31T02:59:22.166Z,20.36
2022-07-31T03:01:48.790Z,20.34
2022-07-31T03:04:15.552Z,20.28
2022-07-31T03:06:42.242Z,20.21
2022-07-31T03:09:08.847Z,20.22
2022-07-31T03:11:36.103Z,20.23
2022-07-31T03:14:04.277Z,20.23
2022-07-31T03:16:31.940Z,20.24
2022-07-31T03:18:58.499Z,20.22
2022-07-31T03:21:25.858Z,20.21
2022-07-31T03:23:52.369Z,20.13
2022-07-31T03:26:19.070Z,20.12
2022-07-31T03:28:45.789Z,20.13
2022-07-31T03:31:12.483Z,20.14
2022-07-31T03:33:39.076Z,20.16
2022-07-31T03:36:06.006Z,20.20
2022-07-31T03:38:39.303Z,20.26
2022-07-31T03:41:10.758Z,20.30
2022-07-31T03:43:47.156Z,20.35
2022-07-31T03:46:17.251Z,20.39
2022-07-31T03:48:44.811Z,20.47
2022-07-31T03:51:11.579Z,20.52
2022-07-31T03:53:38.697Z,20.57
2022-07-31T03:56:07.020Z,20.58
2022-07-31T03:58:34.083Z,20.58
2022-07-31T04:01:04.606Z,20.60
2022-07-31T04:03:33.877Z,20.66
2022-07-31T04:06:00.423Z,20.71
2022-07-31T04:08:27.083Z,20.74
2022-07-31T04:10:54.046Z,20.76
2022-07-31T04:13:20.644Z,20.78
2022-07-31T04:15:47.214Z,20.80
2022-07-31T04:18:13.909Z,20.84
2022-07-31T04:20:40.449Z,20.89
2022-07-31T04:23:07.149Z,20.91
2022-07-31T04:25:33.867Z,20.95
2022-07-31T04:28:01.446Z,20.98
2022-07-31T04:30:28.148Z,20.99
2022-07-31T04:32:54.726Z,20.99
2022-07-31T04:35:22.192Z,21.05
2022-07-31T04:37:48.815Z,21.08
2022-07-31T04:40:15.977Z,21.11
2022-07-31T04:42:42.686Z,21.12
2022-07-31T04:45:10.552Z,21.13
2022-07-31T04:47:38.334Z,21.15
2022-07-31T04:50:05.548Z,21.16
2022-07-31T04:52:32.829Z,21.14
2022-07-31T04:54:59.385Z,21.15
2022-07-31T04:57:26.107Z,21.16
2022-07-31T05:00:00.381Z,21.11
2022-07-31T05:02:28.413Z,21.09
2022-07-31T05:04:56.878Z,21.10
2022-07-31T05:07:24.409Z,21.15
2022-07-31T05:09:55.388Z,21.23
2022-07-31T05:12:21.932Z,21.71
2022-07-31T05:14:48.480Z,22.24
2022-07-31T05:17:15.058Z,22.61
2022-07-31T05:19:41.610Z,22.93
2022-07-31T05:22:08.470Z,23.20
2022-07-31T05:24:35.164Z,23.42
2022-07-31T05:27:02.987Z,23.56
2022-07-31T05:29:30.608Z,23.64
2022-07-31T05:32:00.388Z,23.70
2022-07-31T05:34:30.183Z,23.75
2022-07-31T05:36:58.458Z,23.78
2022-07-31T05:39:25.349Z,23.86
2022-07-31T05:41:52.861Z,23.97
2022-07-31T05:44:19.681Z,24.08
2022-07-31T05:46:46.265Z,24.17
2022-07-31T05:49:12.950Z,24.31
2022-07-31T05:51:43.502Z,24.36
2022-07-31T05:54:10.086Z,24.34
2022-07-31T05:56:36.775Z,24.34
2022-07-31T05:59:03.504Z,24.37
2022-07-31T06:01:30.161Z,24.46
2022-07-31T06:03:56.749Z,24.53
2022-07-31T06:06:23.327Z,24.62
2022-07-31T06:08:49.861Z,24.52
2022-07-31T06:11:16.416Z,24.35
2022-07-31T06:13:43.376Z,24.21
2022-07-31T06:16:14.477Z,24.11
2022-07-31T06:18:41.921Z,24.04
2022-07-31T06:21:08.487Z,23.97
2022-07-31T06:23:35.086Z,23.87
2022-07-31T06:26:01.736Z,23.74
2022-07-31T06:28:35.389Z,23.73
2022-07-31T06:31:22.652Z,23.86
2022-07-31T06:33:50.869Z,24.03
2022-07-31T06:36:18.483Z,24.23
2022-07-31T06:38:46.062Z,24.31
2022-07-31T06:41:32.835Z,24.25
2022-07-31T06:43:59.493Z,24.05
2022-07-31T06:46:26.059Z,23.93
2022-07-31T06:48:52.658Z,23.86
2022-07-31T06:51:34.756Z,23.85
2022-07-31T06:54:04.090Z,23.86
2022-07-31T06:56:31.389Z,23.82
2022-07-31T06:58:58.102Z,23.89
2022-07-31T07:01:24.738Z,24.01
2022-07-31T07:03:51.543Z,24.18
2022-07-31T07:16:48.103Z,24.10
2022-07-31T07:19:14.650Z,24.09
2022-07-31T07:21:41.211Z,24.11
2022-07-31T07:24:08.384Z,24.25
2022-07-31T07:26:34.979Z,24.47
2022-07-31T07:29:02.565Z,24.55
2022-07-31T07:31:29.178Z,24.68
2022-07-31T07:33:56.292Z,24.79
2022-07-31T07:36:24.829Z,24.90
2022-07-31T07:38:55.124Z,24.95
2022-07-31T07:41:23.389Z,25.00
2022-07-31T07:43:51.465Z,25.06
2022-07-31T07:46:18.513Z,25.12
2022-07-31T07:48:45.316Z,25.26
2022-07-31T07:51:12.259Z,25.34
2022-07-31T07:53:38.801Z,25.45
2022-07-31T07:56:05.790Z,25.54
2022-07-31T07:58:32.387Z,25.56
2022-07-31T08:00:58.986Z,25.63
2022-07-31T08:03:49.436Z,25.64
2022-07-31T08:06:12.226Z,25.70
2022-07-31T08:08:38.774Z,25.77
2022-07-31T08:11:05.432Z,25.91
2022-07-31T08:13:32.056Z,25.98
2022-07-31T08:15:58.626Z,25.99
2022-07-31T08:18:27.282Z,25.95
2022-07-31T08:20:55.890Z,25.95
2022-07-31T08:23:22.446Z,25.98
2022-07-31T08:25:49.109Z,26.10
2022-07-31T08:28:19.537Z,26.10
2022-07-31T08:30:50.757Z,26.22
2022-07-31T08:33:17.398Z,26.35
2022-07-31T08:35:47.488Z,26.42
2022-07-31T08:38:18.636Z,26.44
2022-07-31T08:40:46.838Z,26.50
2022-07-31T08:44:00.776Z,26.55
2022-07-31T08:46:02.935Z,26.59
2022-07-31T08:48:32.629Z,26.73
2022-07-31T08:51:05.589Z,26.81
2022-07-31T08:53:36.618Z,26.93
2022-07-31T08:56:05.397Z,27.01
2022-07-31T08:58:34.898Z,27.00
2022-07-31T09:01:04.510Z,26.96
2022-07-31T09:03:31.230Z,26.90
2022-07-31T09:05:58.042Z,26.92
2022-07-31T09:08:24.647Z,26.95
2022-07-31T09:11:11.779Z,26.95
2022-07-31T09:13:38.690Z,27.02
2022-07-31T09:16:05.935Z,27.11
2022-07-31T09:18:32.925Z,27.09
2022-07-31T09:21:07.814Z,27.02
2022-07-31T09:23:46.468Z,27.02
2022-07-31T09:26:13.583Z,27.13
2022-07-31T09:28:43.146Z,27.21
2022-07-31T09:31:11.700Z,27.29
2022-07-31T09:33:45.217Z,27.31
2022-07-31T09:36:13.057Z,27.45
2022-07-31T09:38:42.699Z,27.54
2022-07-31T09:41:56.332Z,27.57
2022-07-31T09:44:10.382Z,27.69
2022-07-31T09:46:46.030Z,27.75
2022-07-31T09:49:13.536Z,27.64
2022-07-31T09:51:45.490Z,27.71
2022-07-31T09:54:26.497Z,27.86
2022-07-31T09:56:53.315Z,27.77
2022-07-31T09:59:20.024Z,27.84
2022-07-31T10:01:51.476Z,27.87
2022-07-31T10:04:20.079Z,27.83
2022-07-31T10:06:52.058Z,27.79
2022-07-31T10:09:20.903Z,27.72
2022-07-31T10:11:50.356Z,27.77
2022-07-31T10:14:22.588Z,27.90
2022-07-31T10:16:54.676Z,28.09
2022-07-31T10:19:22.942Z,28.14
2022-07-31T10:21:57.767Z,28.19
2022-07-31T10:24:28.407Z,28.37
2022-07-31T10:27:01.312Z,28.48
2022-07-31T10:29:32.974Z,28.63
2022-07-31T10:32:00.172Z,28.63
2022-07-31T10:34:27.497Z,28.70
2022-07-31T10:36:59.247Z,28.85
2022-07-31T10:39:31.870Z,28.95
2022-07-31T10:42:31.768Z,28.93
2022-07-31T10:45:10.182Z,28.99
2022-07-31T10:47:37.019Z,29.05
2022-07-31T10:50:04.819Z,28.91
2022-07-31T10:52:37.194Z,28.84
2022-07-31T10:55:29.969Z,28.76
2022-07-31T10:58:12.959Z,28.81
2022-07-31T11:00:40.531Z,28.94
2022-07-31T11:03:21.531Z,28.95
2022-07-31T11:06:01.869Z,28.84
2022-07-31T11:08:51.537Z,28.84
2022-07-31T11:11:19.614Z,28.97
2022-07-31T11:13:52.747Z,29.07
2022-07-31T11:16:19.777Z,29.18
2022-07-31T11:19:01.255Z,29.25
2022-07-31T11:21:39.865Z,29.19
2022-07-31T11:24:20.052Z,29.27
2022-07-31T11:26:53.754Z,29.35
2022-07-31T11:29:59.399Z,29.37
2022-07-31T11:32:25.108Z,29.48
2022-07-31T11:34:57.416Z,29.54
2022-07-31T11:37:30.584Z,29.58
2022-07-31T11:40:13.534Z,29.63
2022-07-31T11:42:46.324Z,29.55
2022-07-31T11:45:16.762Z,29.45
2022-07-31T11:48:11.168Z,29.36
2022-07-31T11:50:40.660Z,29.39
2022-07-31T11:53:07.427Z,29.63
2022-07-31T11:55:53.896Z,29.77
2022-07-31T11:58:22.507Z,29.68
2022-07-31T12:00:59.327Z,29.63
2022-07-31T12:03:30.740Z,29.64
2022-07-31T12:05:57.289Z,29.58
2022-07-31T12:08:25.338Z,29.46
2022-07-31T12:10:56.247Z,29.44
2022-07-31T12:13:24.453Z,29.41
2022-07-31T12:16:04.336Z,29.43
2022-07-31T12:18:33.835Z,29.32
2022-07-31T12:21:03.124Z,29.24
2022-07-31T12:24:00.776Z,29.34
2022-07-31T12:26:32.355Z,29.44
2022-07-31T12:29:07.708Z,29.56
2022-07-31T12:31:49.007Z,29.67
2022-07-31T12:34:29.636Z,29.86
2022-07-31T12:37:06.816Z,29.89
2022-07-31T12:40:00.750Z,30.08
2022-07-31T12:42:39.278Z,30.23
2022-07-31T12:45:20.159Z,30.17
2022-07-31T12:47:51.977Z,30.06
2022-07-31T12:50:23.567Z,30.07
2022-07-31T12:52:50.258Z,30.10
2022-07-31T12:55:17.829Z,29.99
2022-07-31T12:57:51.160Z,29.83
2022-07-31T13:00:20.161Z,29.76
2022-07-31T13:02:46.742Z,29.89
2022-07-31T13:05:13.333Z,30.00
2022-07-31T13:07:39.884Z,29.94
2022-07-31T13:10:21.012Z,29.82
2022-07-31T13:12:51.539Z,29.76
2022-07-31T13:15:20.048Z,29.69
2022-07-31T13:17:50.342Z,29.77
2022-07-31T13:20:18.148Z,29.84
2022-07-31T13:22:44.775Z,29.89
2022-07-31T13:25:11.447Z,30.10
2022-07-31T13:27:38.193Z,30.15
2022-07-31T13:30:05.923Z,30.09
2022-07-31T13:32:32.808Z,30.17
2022-07-31T13:35:26.793Z,30.11
2022-07-31T13:37:47.056Z,30.17
2022-07-31T13:40:15.527Z,30.37
2022-07-31T13:42:42.144Z,30.50
2022-07-31T13:45:09.491Z,30.66
2022-07-31T13:47:51.347Z,30.63
2022-07-31T13:50:19.359Z,30.63
2022-07-31T13:52:45.977Z,30.71
2022-07-31T13:55:12.622Z,30.94
2022-07-31T13:57:39.194Z,31.06
2022-07-31T14:00:06.485Z,31.05
2022-07-31T14:02:33.142Z,31.18
2022-07-31T14:04:59.748Z,31.47
2022-07-31T14:07:44.963Z,31.45
2022-07-31T14:10:15.932Z,31.64
2022-07-31T14:12:45.190Z,31.82
2022-07-31T14:15:11.928Z,31.91
2022-07-31T14:17:38.618Z,32.15
2022-07-31T14:20:05.826Z,32.24
2022-07-31T14:22:32.666Z,32.35
2022-07-31T14:24:59.239Z,32.59
2022-07-31T14:27:25.818Z,32.71
2022-07-31T14:29:52.448Z,32.69
2022-07-31T14:32:19.669Z,32.87
2022-07-31T14:34:46.315Z,33.21
2022-07-31T14:37:12.958Z,33.36
2022-07-31T14:39:42.705Z,33.41
2022-07-31T14:42:09.909Z,33.43
2022-07-31T14:44:38.274Z,33.41
2022-07-31T14:47:05.271Z,33.70
2022-07-31T14:50:07.492Z,33.98
2022-07-31T14:52:18.813Z,34.27
2022-07-31T14:54:45.471Z,34.54
2022-07-31T14:57:12.232Z,34.89
2022-07-31T14:59:38.973Z,35.04
2022-07-31T15:02:06.034Z,35.00
2022-07-31T15:04:32.910Z,35.01
2022-07-31T15:07:18.987Z,35.04
2022-07-31T15:09:47.277Z,34.97
2022-07-31T15:12:16.873Z,35.03
2022-07-31T15:14:44.296Z,35.17
2022-07-31T15:17:11.184Z,35.37
2022-07-31T15:19:37.822Z,35.47
2022-07-31T15:22:10.345Z,35.44
2022-07-31T15:24:48.883Z,35.50
2022-07-31T15:27:17.415Z,35.69
2022-07-31T15:30:03.551Z,35.44
2022-07-31T15:32:30.632Z,35.14
2022-07-31T15:34:57.371Z,35.36
2022-07-31T15:37:23.929Z,35.24
2022-07-31T15:40:03.099Z,35.16
2022-07-31T15:42:32.057Z,35.10
2022-07-31T15:44:58.670Z,35.06
2022-07-31T15:47:25.337Z,35.24
2022-07-31T15:49:51.915Z,35.30
2022-07-31T15:52:19.273Z,35.26
2022-07-31T15:54:46.740Z,34.95
2022-07-31T15:57:13.743Z,34.58
2022-07-31T15:59:41.471Z,34.43
2022-07-31T16:02:08.026Z,34.63
2022-07-31T16:04:36.798Z,35.02
2022-07-31T16:08:32.494Z,35.33
2022-07-31T16:10:15.693Z,35.16
2022-07-31T16:12:46.601Z,35.27
2022-07-31T16:15:14.407Z,35.48
2022-07-31T16:17:41.514Z,35.59
2022-07-31T16:20:20.705Z,35.49
2022-07-31T16:22:56.014Z,35.32
2022-07-31T16:25:23.653Z,35.20
2022-07-31T16:27:50.255Z,35.62
2022-07-31T16:30:16.964Z,35.84
2022-07-31T16:32:43.831Z,35.66
2022-07-31T16:35:11.920Z,35.42
2022-07-31T16:37:52.404Z,35.32
2022-07-31T16:40:28.405Z,35.70
2022-07-31T16:43:50.672Z,35.86
2022-07-31T16:45:54.435Z,35.93
2022-07-31T16:48:21.090Z,35.74
2022-07-31T16:50:53.103Z,35.74
2022-07-31T16:54:10.299Z,35.69
2022-07-31T16:56:10.610Z,35.51
2022-07-31T16:58:37.294Z,35.43
2022-07-31T17:01:04.284Z,35.28
2022-07-31T17:04:01.330Z,35.63
2022-07-31T17:06:17.764Z,35.91
2022-07-31T17:08:44.426Z,35.95
2022-07-31T17:11:11.023Z,35.93
2022-07-31T17:13:37.577Z,35.64
2022-07-31T17:16:04.523Z,35.24
2022-07-31T17:18:31.163Z,34.73
2022-07-31T17:20:58.447Z,34.39
2022-07-31T17:23:43.589Z,33.99
2022-07-31T17:26:21.055Z,33.30
2022-07-31T17:28:48.553Z,32.75
2022-07-31T17:31:15.173Z,32.54
2022-07-31T17:33:58.744Z,32.20
2022-07-31T17:36:27.104Z,31.95
2022-07-31T17:38:53.646Z,31.52
2022-07-31T17:41:24.856Z,31.01
2022-07-31T17:43:53.043Z,30.49
2022-07-31T17:46:28.551Z,30.16
2022-07-31T17:49:01.753Z,29.92
2022-07-31T17:51:28.457Z,29.74
2022-07-31T17:53:59.213Z,29.61
2022-07-31T17:56:26.617Z,29.41
2022-07-31T17:58:53.718Z,29.21
2022-07-31T18:01:21.639Z,29.01
2022-07-31T18:03:51.069Z,28.81
2022-07-31T18:06:17.627Z,28.68
2022-07-31T18:08:44.180Z,28.64
2022-07-31T18:11:10.720Z,28.62
2022-07-31T18:13:39.182Z,28.57
2022-07-31T18:16:16.448Z,28.50
2022-07-31T18:18:43.550Z,28.45
2022-07-31T18:21:11.779Z,28.30
2022-07-31T18:23:43.640Z,28.22
2022-07-31T18:26:14.792Z,28.15
2022-07-31T18:28:41.421Z,28.16
2022-07-31T18:31:13.253Z,28.14
2022-07-31T18:33:54.917Z,28.03
2022-07-31T18:36:21.731Z,27.95
2022-07-31T18:38:48.712Z,27.89
2022-07-31T18:41:15.265Z,27.80
2022-07-31T18:43:41.973Z,27.71
2022-07-31T18:46:08.562Z,27.59
2022-07-31T18:48:35.129Z,27.51
2022-07-31T18:51:04.762Z,27.41
2022-07-31T18:53:32.957Z,27.33
2022-07-31T18:55:59.775Z,27.24
2022-07-31T18:58:26.612Z,27.14
2022-07-31T19:00:55.233Z,27.05
2022-07-31T19:03:23.504Z,26.97
2022-07-31T19:05:52.548Z,26.90
2022-07-31T19:08:20.439Z,26.88
2022-07-31T19:10:49.345Z,26.83
2022-07-31T19:13:19.159Z,26.71
2022-07-31T19:15:51.558Z,26.61
2022-07-31T19:18:18.702Z,26.58
2022-07-31T19:20:59.895Z,26.47
2022-07-31T19:23:39.179Z,26.44
2022-07-31T19:26:05.741Z,26.39
2022-07-31T19:28:33.038Z,26.31
2022-07-31T19:31:00.331Z,26.21
2022-07-31T19:33:27.207Z,26.15
2022-07-31T19:35:58.846Z,26.05
2022-07-31T19:38:29.109Z,25.95
2022-07-31T19:40:55.717Z,25.85
2022-07-31T19:43:22.354Z,25.77
2022-07-31T19:46:10.633Z,25.67
2022-07-31T19:48:36.722Z,25.63
2022-07-31T19:51:04.334Z,25.55
2022-07-31T19:53:31.357Z,25.51
2022-07-31T19:55:58.018Z,25.44
2022-07-31T19:58:24.656Z,25.40
2022-07-31T20:00:51.375Z,25.38
2022-07-31T20:03:18.014Z,25.35
2022-07-31T20:05:44.660Z,25.31
2022-07-31T20:08:11.205Z,25.25
2022-07-31T20:10:37.782Z,25.19
2022-07-31T20:13:04.583Z,25.17
2022-07-31T20:15:51.917Z,25.12
2022-07-31T20:18:27.171Z,25.06
2022-07-31T20:20:59.199Z,25.01
2022-07-31T20:23:26.614Z,24.95
2022-07-31T20:25:53.726Z,24.91
2022-07-31T20:28:20.826Z,24.88
2022-07-31T20:30:47.386Z,24.87
2022-07-31T20:33:14.060Z,24.84
2022-07-31T20:35:49.062Z,24.79
2022-07-31T20:38:22.929Z,24.72
2022-07-31T20:40:53.875Z,24.65
2022-07-31T20:43:29.262Z,24.58
2022-07-31T20:45:57.806Z,24.53
2022-07-31T20:48:31.363Z,24.49
2022-07-31T20:51:03.461Z,24.43
2022-07-31T20:53:30.595Z,24.43
2022-07-31T20:55:57.863Z,24.37
2022-07-31T20:58:25.600Z,24.33
2022-07-31T21:00:53.111Z,24.26
2022-07-31T21:03:19.977Z,24.19
2022-07-31T21:05:47.658Z,24.13
2022-07-31T21:08:14.304Z,24.13
2022-07-31T21:10:41.071Z,24.08
2022-07-31T21:13:07.840Z,24.01
2022-07-31T21:15:42.314Z,23.98
2022-07-31T21:18:11.978Z,23.95
2022-07-31T21:20:50.025Z,23.94
2022-07-31T21:23:24.370Z,23.94
2022-07-31T21:25:53.171Z,23.92
2022-07-31T21:28:20.760Z,23.90
2022-07-31T21:30:48.178Z,23.88
2022-07-31T21:33:15.130Z,23.85
2022-07-31T21:35:42.313Z,23.84
2022-07-31T21:38:11.960Z,23.82
2022-07-31T21:40:39.905Z,23.81
2022-07-31T21:43:06.978Z,23.77
2022-07-31T21:45:50.491Z,23.73
2022-07-31T21:48:23.076Z,23.69
2022-07-31T21:50:49.895Z,23.66
2022-07-31T21:53:16.504Z,23.62
2022-07-31T21:55:43.126Z,23.60
2022-07-31T21:58:10.008Z,23.59
2022-07-31T22:00:37.147Z,23.57
2022-07-31T22:03:04.709Z,23.51
2022-07-31T22:06:09.897Z,23.48
2022-07-31T22:08:36.603Z,23.40
2022-07-31T22:11:03.621Z,23.36
2022-07-31T22:13:30.401Z,23.32
2022-07-31T22:16:00.074Z,23.27
2022-07-31T22:18:28.830Z,23.23
2022-07-31T22:20:56.109Z,23.20
2022-07-31T22:23:22.959Z,23.17
2022-07-31T22:25:49.999Z,23.13
2022-07-31T22:28:21.319Z,23.07
2022-07-31T22:30:48.779Z,23.03
2022-07-31T22:33:15.695Z,22.97
2022-07-31T22:35:42.797Z,22.92
2022-07-31T22:38:11.601Z,22.89
2022-07-31T22:40:38.532Z,22.86
2022-07-31T22:44:09.535Z,22.84
2022-07-31T22:45:53.461Z,22.80
2022-07-31T22:48:21.793Z,22.77
2022-07-31T22:50:49.137Z,22.73
2022-07-31T22:53:15.819Z,22.71
2022-07-31T22:55:42.385Z,22.69
2022-07-31T22:58:11.304Z,22.66
2022-07-31T23:00:38.467Z,22.63
2022-07-31T23:03:05.072Z,22.62
2022-07-31T23:06:28.045Z,22.58
2022-07-31T23:08:18.179Z,22.56
2022-07-31T23:10:44.736Z,22.53
2022-07-31T23:13:11.341Z,22.48
2022-07-31T23:15:37.919Z,22.46
2022-07-31T23:18:04.542Z,22.44
2022-07-31T23:20:31.119Z,22.44
2022-07-31T23:22:57.672Z,22.47
2022-07-31T23:25:24.212Z,22.50
2022-07-31T23:27:50.773Z,22.50
2022-07-31T23:30:17.334Z,22.51
2022-07-31T23:32:43.930Z,22.55
2022-07-31T23:35:10.507Z,22.57
2022-07-31T23:37:37.097Z,22.60
2022-07-31T23:40:04.307Z,22.61
2022-07-31T23:42:39.558Z,22.60
2022-07-31T23:45:11.367Z,22.59
2022-07-31T23:47:46.147Z,22.60
2022-07-31T23:50:14.927Z,22.58
2022-07-31T23:52:44.981Z,22.58
2022-07-31T23:55:12.830Z,22.59
2022-07-31T23:57:39.725Z,22.56
